Time;durP1;ratioP1;P1;durP2;ratioP2;P2;SDS_P1;SDS_P2;PMS_P1;PMS_P2;Temp;Humidity;BMP_temperature;BMP_pressure;BME280_temperature;BME280_humidity;BME280_pressure;Samples;Min_cycle;Max_cycle;Signal;HPM_P1;HPM_P2
2023/03/01 00:01:59;;;;;;;;;;;1.40;99.90;;;;;;5052669;28;2021;-65
2023/03/01 00:04:25;;;;;;;;;;;1.40;99.90;;;;;;5046478;28;2090;-65
2023/03/01 00:06:51;;;;;;;;;;;1.40;99.90;;;;;;5054189;28;1982;-63
2023/03/01 00:09:17;;;;;;;;;;;1.40;99.90;;;;;;5053654;28;1960;-63
2023/03/01 00:11:43;;;;;;;;;;;1.30;99.90;;;;;;5050956;28;2123;-63
2023/03/01 00:14:10;;;;;;;;;;;1.40;99.90;;;;;;5053448;28;2393;-63
2023/03/01 00:16:38;;;;;;;;;;;1.40;99.90;;;;;;5051348;28;1967;-64
2023/03/01 00:19:05;;;;;;;;;;;1.30;99.90;;;;;;5052539;28;2044;-65
2023/03/01 00:21:31;;;;;;;;;;;1.30;99.90;;;;;;5048523;28;2036;-65
2023/03/01 00:23:57;;;;;;;;;;;1.30;99.90;;;;;;5049831;28;2129;-65
2023/03/01 00:26:24;;;;;;;;;;;1.30;99.90;;;;;;5045146;28;2099;-63
2023/03/01 00:28:51;;;;;;;;;;;1.10;99.90;;;;;;5053544;28;1838;-63
2023/03/01 00:31:18;;;;;;;;;;;1.20;99.90;;;;;;5053728;28;1886;-63
2023/03/01 00:33:45;;;;;;;;;;;1.10;99.90;;;;;;5053236;28;1987;-65
2023/03/01 00:36:12;;;;;;;;;;;1.10;99.90;;;;;;5054130;28;2351;-62
2023/03/01 00:38:39;;;;;;;;;;;1.10;99.90;;;;;;5055058;28;1967;-65
2023/03/01 00:41:06;;;;;;;;;;;1.10;99.90;;;;;;5053658;28;2299;-64
2023/03/01 00:43:36;;;;;;;;;;;1.00;99.90;;;;;;5051156;28;2031;-65
2023/03/01 00:46:07;;;;;;;;;;;0.90;99.90;;;;;;5046337;28;1971;-64
2023/03/01 00:48:33;;;;;;;;;;;0.90;99.90;;;;;;5053091;28;1991;-63
2023/03/01 00:51:09;;;;;;;;;;;0.90;99.90;;;;;;5054058;28;2252;-65
2023/03/01 00:53:35;;;;;;;;;;;0.80;99.90;;;;;;5049037;28;2305;-63
2023/03/01 00:56:02;;;;;;;;;;;0.80;99.90;;;;;;5053081;28;1972;-64
2023/03/01 00:58:29;;;;;;;;;;;0.80;99.90;;;;;;5053308;28;1946;-64
2023/03/01 01:00:55;;;;;;;;;;;0.70;99.90;;;;;;5053425;28;2041;-63
2023/03/01 01:03:23;;;;;;;;;;;0.70;99.90;;;;;;5051132;28;2095;-63
2023/03/01 01:05:49;;;;;;;;;;;0.70;99.90;;;;;;5048936;28;2006;-64
2023/03/01 01:08:15;;;;;;;;;;;0.70;99.90;;;;;;5056019;28;1916;-63
2023/03/01 01:10:43;;;;;;;;;;;0.70;99.90;;;;;;5053248;28;1693;-64
2023/03/01 01:13:09;;;;;;;;;;;0.80;99.90;;;;;;5052332;28;2408;-64
2023/03/01 01:15:35;;;;;;;;;;;0.70;99.90;;;;;;5051806;28;2016;-65
2023/03/01 01:18:01;;;;;;;;;;;0.70;99.90;;;;;;5050744;28;1759;-65
2023/03/01 01:20:27;;;;;;;;;;;0.70;99.90;;;;;;5052758;28;1866;-64
2023/03/01 01:22:54;;;;;;;;;;;0.70;99.90;;;;;;5051497;28;1940;-61
2023/03/01 01:25:20;;;;;;;;;;;0.70;99.90;;;;;;5046133;28;2067;-62
2023/03/01 01:27:46;;;;;;;;;;;0.70;99.90;;;;;;5039916;28;1982;-64
2023/03/01 01:30:12;;;;;;;;;;;0.60;99.90;;;;;;5041294;28;2380;-62
2023/03/01 01:32:39;;;;;;;;;;;0.70;99.90;;;;;;5043948;28;1984;-65
2023/03/01 01:35:05;;;;;;;;;;;0.60;99.90;;;;;;5051316;28;2399;-64
2023/03/01 01:37:33;;;;;;;;;;;0.60;99.90;;;;;;5053016;28;2306;-62
2023/03/01 01:39:59;;;;;;;;;;;0.60;99.90;;;;;;5051946;28;2085;-65
2023/03/01 01:42:26;;;;;;;;;;;0.60;99.90;;;;;;5044996;28;2123;-64
2023/03/01 01:45:11;;;;;;;;;;;0.60;99.90;;;;;;5051872;28;2318;-64
2023/03/01 01:47:37;;;;;;;;;;;0.50;99.90;;;;;;5047424;28;2424;-64
2023/03/01 01:50:03;;;;;;;;;;;0.50;99.90;;;;;;5052416;28;1889;-64
2023/03/01 01:52:33;;;;;;;;;;;0.50;99.90;;;;;;5052821;28;1921;-64
2023/03/01 01:55:06;;;;;;;;;;;0.50;99.90;;;;;;5053562;28;2054;-64
2023/03/01 01:57:35;;;;;;;;;;;0.50;99.90;;;;;;5049041;28;2145;-64
2023/03/01 02:00:13;;;;;;;;;;;0.50;99.90;;;;;;5052409;28;2417;-64
2023/03/01 02:02:40;;;;;;;;;;;0.40;99.90;;;;;;5051190;28;2053;-64
2023/03/01 02:05:25;;;;;;;;;;;0.40;99.90;;;;;;5065953;28;2398;-63
2023/03/01 02:07:52;;;;;;;;;;;0.40;99.90;;;;;;5049745;28;2133;-64
2023/03/01 02:10:19;;;;;;;;;;;0.40;99.90;;;;;;5044534;28;1960;-64
2023/03/01 02:12:45;;;;;;;;;;;0.40;99.90;;;;;;5052357;28;1990;-63
2023/03/01 02:15:11;;;;;;;;;;;0.40;99.90;;;;;;5051412;28;1980;-64
2023/03/01 02:17:38;;;;;;;;;;;0.40;99.90;;;;;;5049151;28;1924;-64
2023/03/01 02:20:07;;;;;;;;;;;0.40;99.90;;;;;;5052708;28;2361;-65
2023/03/01 02:22:34;;;;;;;;;;;0.40;99.90;;;;;;5049105;28;1949;-64
2023/03/01 02:25:18;;;;;;;;;;;0.40;99.90;;;;;;5053759;28;2144;-64
2023/03/01 02:27:51;;;;;;;;;;;0.30;99.90;;;;;;5048258;28;2297;-64
2023/03/01 02:30:18;;;;;;;;;;;0.30;99.90;;;;;;5052383;28;2038;-64
2023/03/01 02:32:45;;;;;;;;;;;0.40;99.90;;;;;;5056258;28;2068;-64
2023/03/01 02:35:13;;;;;;;;;;;0.40;99.90;;;;;;5053874;28;2416;-64
2023/03/01 02:37:40;;;;;;;;;;;0.40;99.90;;;;;;5052839;28;1736;-63
2023/03/01 02:40:11;;;;;;;;;;;0.40;99.90;;;;;;5049151;28;2434;-64
2023/03/01 02:42:44;;;;;;;;;;;0.40;99.90;;;;;;5052254;28;1972;-64
2023/03/01 02:45:10;;;;;;;;;;;0.40;99.90;;;;;;5047228;28;2327;-65
2023/03/01 02:47:36;;;;;;;;;;;0.40;99.90;;;;;;5044065;28;2022;-64
2023/03/01 02:50:10;;;;;;;;;;;0.40;99.90;;;;;;5054319;28;2050;-62
2023/03/01 02:52:39;;;;;;;;;;;0.40;99.90;;;;;;5056145;28;2120;-64
2023/03/01 02:55:08;;;;;;;;;;;0.40;99.90;;;;;;5055221;28;1972;-61
2023/03/01 02:57:35;;;;;;;;;;;0.40;99.90;;;;;;5055573;28;2093;-63
2023/03/01 03:00:06;;;;;;;;;;;0.30;99.90;;;;;;5055736;28;2377;-64
2023/03/01 03:02:35;;;;;;;;;;;0.30;99.90;;;;;;5055294;28;2043;-64
2023/03/01 03:05:09;;;;;;;;;;;0.20;99.90;;;;;;5052709;28;2500;-64
2023/03/01 03:07:37;;;;;;;;;;;0.20;99.90;;;;;;5054686;28;2015;-63
2023/03/01 03:10:04;;;;;;;;;;;0.20;99.90;;;;;;5047191;28;2035;-62
2023/03/01 03:12:30;;;;;;;;;;;0.20;99.90;;;;;;5055532;28;1626;-62
2023/03/01 03:14:56;;;;;;;;;;;0.20;99.90;;;;;;5054106;28;1988;-64
2023/03/01 03:17:23;;;;;;;;;;;0.10;99.90;;;;;;5076892;28;1970;-65
2023/03/01 03:19:49;;;;;;;;;;;0.00;99.90;;;;;;5055746;28;2045;-63
2023/03/01 03:22:15;;;;;;;;;;;0.00;99.90;;;;;;5044684;28;1971;-64
2023/03/01 03:24:41;;;;;;;;;;;-0.20;99.90;;;;;;5047961;28;2162;-64
2023/03/01 03:27:07;;;;;;;;;;;-0.20;99.90;;;;;;5051659;28;2082;-64
2023/03/01 03:29:34;;;;;;;;;;;-0.20;99.90;;;;;;5055482;28;1999;-65
2023/03/01 03:32:00;;;;;;;;;;;-0.10;99.90;;;;;;5054651;28;2081;-64
2023/03/01 03:34:26;;;;;;;;;;;-0.10;99.90;;;;;;5054562;28;2223;-64
2023/03/01 03:36:58;;;;;;;;;;;-0.20;99.90;;;;;;5048505;28;2265;-64
2023/03/01 03:39:26;;;;;;;;;;;-0.20;99.90;;;;;;5054724;28;1973;-64
2023/03/01 03:41:53;;;;;;;;;;;-0.20;99.90;;;;;;5054530;28;2171;-64
2023/03/01 03:44:19;;;;;;;;;;;-0.30;99.90;;;;;;5054116;28;2051;-62
2023/03/01 03:46:45;;;;;;;;;;;-0.40;99.90;;;;;;5052651;28;1971;-63
2023/03/01 03:49:12;;;;;;;;;;;-0.50;99.90;;;;;;5054176;28;2043;-62
2023/03/01 03:51:38;;;;;;;;;;;-0.50;99.90;;;;;;5053574;28;2074;-62
2023/03/01 03:54:04;;;;;;;;;;;-0.50;99.90;;;;;;5053251;28;2311;-64
2023/03/01 03:56:30;;;;;;;;;;;-0.60;99.90;;;;;;5053808;28;2040;-62
2023/03/01 03:58:56;;;;;;;;;;;-0.70;99.90;;;;;;5054120;28;1740;-63
2023/03/01 04:01:22;;;;;;;;;;;-0.90;99.90;;;;;;5054504;28;1964;-62
2023/03/01 04:03:54;;;;;;;;;;;-1.00;99.90;;;;;;5051352;28;2095;-62
2023/03/01 04:06:20;;;;;;;;;;;-1.00;99.90;;;;;;5053103;28;2175;-62
2023/03/01 04:08:46;;;;;;;;;;;-1.00;99.90;;;;;;5054356;28;2139;-62
2023/03/01 04:11:28;;;;;;;;;;;-1.10;99.90;;;;;;5054219;28;2412;-61
2023/03/01 04:13:55;;;;;;;;;;;-1.30;99.90;;;;;;5050324;28;2303;-62
2023/03/01 04:16:22;;;;;;;;;;;-1.40;99.90;;;;;;5046245;28;2085;-63
2023/03/01 04:18:48;;;;;;;;;;;-1.40;99.90;;;;;;5056097;28;2022;-63
2023/03/01 04:21:14;;;;;;;;;;;-1.40;99.90;;;;;;5054037;28;2065;-62
2023/03/01 04:23:40;;;;;;;;;;;-1.40;99.90;;;;;;5054500;28;2446;-62
2023/03/01 04:26:07;;;;;;;;;;;-1.60;99.90;;;;;;5053051;28;1995;-62
2023/03/01 04:28:35;;;;;;;;;;;-1.60;99.90;;;;;;5053979;28;1988;-63
2023/03/01 04:31:12;;;;;;;;;;;-1.50;99.90;;;;;;5053823;28;2320;-63
2023/03/01 04:33:42;;;;;;;;;;;-1.50;99.90;;;;;;5046438;28;1993;-63
2023/03/01 04:36:09;;;;;;;;;;;-1.60;99.90;;;;;;5052885;28;2035;-62
2023/03/01 04:38:37;;;;;;;;;;;-1.60;99.90;;;;;;5053626;28;1623;-63
2023/03/01 04:41:07;;;;;;;;;;;-1.60;99.90;;;;;;5053716;28;2293;-63
2023/03/01 04:43:33;;;;;;;;;;;-1.50;99.90;;;;;;5053971;28;2070;-62
2023/03/01 04:46:02;;;;;;;;;;;-1.60;99.90;;;;;;5052117;28;2049;-63
2023/03/01 04:48:29;;;;;;;;;;;-1.50;99.90;;;;;;5047606;28;2025;-63
2023/03/01 04:50:55;;;;;;;;;;;-1.50;99.90;;;;;;5049681;28;2051;-62
2023/03/01 04:53:21;;;;;;;;;;;-1.40;99.90;;;;;;5052510;28;1901;-62
2023/03/01 04:55:47;;;;;;;;;;;-1.40;99.90;;;;;;5051838;28;2397;-62
2023/03/01 04:58:13;;;;;;;;;;;-1.30;99.90;;;;;;5051911;28;1976;-61
2023/03/01 05:00:39;;;;;;;;;;;-1.30;99.90;;;;;;5054016;28;2281;-61
2023/03/01 05:03:06;;;;;;;;;;;-1.30;99.90;;;;;;5050442;28;2224;-61
2023/03/01 05:05:36;;;;;;;;;;;-1.30;99.90;;;;;;5052380;28;2012;-63
2023/03/01 05:08:04;;;;;;;;;;;-1.30;99.90;;;;;;5044838;28;2038;-62
2023/03/01 05:10:31;;;;;;;;;;;-1.30;99.90;;;;;;5053182;28;2065;-62
2023/03/01 05:12:58;;;;;;;;;;;-1.30;99.90;;;;;;5052850;28;2042;-62
2023/03/01 05:15:30;;;;;;;;;;;-1.30;99.90;;;;;;5044732;28;1988;-64
2023/03/01 05:18:00;;;;;;;;;;;-1.30;99.90;;;;;;5063709;28;2061;-62
2023/03/01 05:20:28;;;;;;;;;;;-1.30;99.90;;;;;;5052830;28;2189;-62
2023/03/01 05:22:55;;;;;;;;;;;-1.30;99.90;;;;;;5053162;28;2322;-64
2023/03/01 05:25:21;;;;;;;;;;;-1.30;99.90;;;;;;5052282;28;2102;-65
2023/03/01 05:27:48;;;;;;;;;;;-1.30;99.90;;;;;;5052663;28;2373;-61
2023/03/01 05:30:14;;;;;;;;;;;-1.30;99.90;;;;;;5047474;28;2057;-64
2023/03/01 05:32:43;;;;;;;;;;;-1.40;99.90;;;;;;5052868;28;2101;-62
2023/03/01 05:35:12;;;;;;;;;;;-1.40;99.90;;;;;;5048254;28;2426;-62
2023/03/01 05:37:41;;;;;;;;;;;-1.40;99.90;;;;;;5051492;28;2040;-63
2023/03/01 05:40:15;;;;;;;;;;;-1.40;99.90;;;;;;5055927;28;2344;-62
2023/03/01 05:42:42;;;;;;;;;;;-1.40;99.90;;;;;;5051970;28;2092;-65
2023/03/01 05:45:09;;;;;;;;;;;-1.40;99.90;;;;;;5051363;28;2437;-60
2023/03/01 05:47:35;;;;;;;;;;;-1.40;99.90;;;;;;5044833;28;2084;-61
2023/03/01 05:50:02;;;;;;;;;;;-1.40;99.90;;;;;;5051180;28;2361;-62
2023/03/01 05:52:28;;;;;;;;;;;-1.40;99.90;;;;;;5052652;28;2028;-62
2023/03/01 05:54:55;;;;;;;;;;;-1.50;99.90;;;;;;5051835;28;2010;-64
2023/03/01 05:57:21;;;;;;;;;;;-1.40;99.90;;;;;;5051106;28;1615;-62
2023/03/01 05:59:47;;;;;;;;;;;-1.40;99.90;;;;;;5046137;28;1845;-62
2023/03/01 06:02:13;;;;;;;;;;;-1.40;99.90;;;;;;5037677;28;2279;-62
2023/03/01 06:04:39;;;;;;;;;;;-1.40;99.90;;;;;;5040083;28;1957;-62
2023/03/01 06:07:05;;;;;;;;;;;-1.40;99.90;;;;;;5041271;28;2294;-62
2023/03/01 06:09:31;;;;;;;;;;;-1.40;99.90;;;;;;5043241;28;2143;-62
2023/03/01 06:11:58;;;;;;;;;;;-1.40;99.90;;;;;;5040571;28;2261;-62
2023/03/01 06:14:24;;;;;;;;;;;-1.40;99.90;;;;;;5040943;28;1961;-62
2023/03/01 06:16:50;;;;;;;;;;;-1.40;99.90;;;;;;5046717;28;2010;-62
2023/03/01 06:19:16;;;;;;;;;;;-1.40;99.90;;;;;;5045821;28;1947;-62
2023/03/01 06:21:42;;;;;;;;;;;-1.30;99.90;;;;;;5044395;28;2340;-62
2023/03/01 06:24:09;;;;;;;;;;;-1.40;99.90;;;;;;5051716;28;2367;-62
2023/03/01 06:26:35;;;;;;;;;;;-1.40;99.90;;;;;;5047848;28;1948;-62
2023/03/01 06:29:01;;;;;;;;;;;-1.40;99.90;;;;;;5048060;28;2073;-63
2023/03/01 06:31:27;;;;;;;;;;;-1.40;99.90;;;;;;5052681;28;1921;-62
2023/03/01 06:33:53;;;;;;;;;;;-1.40;99.90;;;;;;5052521;28;2144;-62
2023/03/01 06:36:21;;;;;;;;;;;-1.40;99.90;;;;;;5051966;28;2048;-63
2023/03/01 06:38:47;;;;;;;;;;;-1.40;99.90;;;;;;5052626;28;2063;-62
2023/03/01 06:41:14;;;;;;;;;;;-1.40;99.90;;;;;;5047359;28;2091;-63
2023/03/01 06:43:40;;;;;;;;;;;-1.40;99.90;;;;;;5051487;28;1922;-62
2023/03/01 06:46:06;;;;;;;;;;;-1.40;99.90;;;;;;5047691;28;2361;-63
2023/03/01 06:48:33;;;;;;;;;;;-1.30;99.90;;;;;;5048363;28;1899;-62
2023/03/01 06:51:00;;;;;;;;;;;-1.40;99.90;;;;;;5051260;28;2076;-64
2023/03/01 06:53:27;;;;;;;;;;;-1.40;99.90;;;;;;5051527;28;2039;-62
2023/03/01 06:55:54;;;;;;;;;;;-1.30;99.90;;;;;;5055954;28;1992;-62
2023/03/01 06:58:20;;;;;;;;;;;-1.30;99.90;;;;;;5051943;28;2052;-62
2023/03/01 07:00:46;;;;;;;;;;;-1.20;99.90;;;;;;5049611;28;2023;-63
2023/03/01 07:03:12;;;;;;;;;;;-1.30;99.90;;;;;;5049511;28;1947;-63
2023/03/01 07:05:39;;;;;;;;;;;-1.30;99.90;;;;;;5050976;28;2092;-63
2023/03/01 07:08:05;;;;;;;;;;;-1.30;99.90;;;;;;5049836;28;2086;-63
2023/03/01 07:10:31;;;;;;;;;;;-1.30;99.90;;;;;;5047614;28;1887;-63
2023/03/01 07:12:58;;;;;;;;;;;-1.20;99.90;;;;;;5051801;28;2130;-59
2023/03/01 07:15:25;;;;;;;;;;;-1.20;99.90;;;;;;5050482;28;2027;-63
2023/03/01 07:17:51;;;;;;;;;;;-1.20;99.90;;;;;;5054256;28;2019;-62
2023/03/01 07:20:18;;;;;;;;;;;-1.20;99.90;;;;;;5078258;28;1513;-63
2023/03/01 07:22:44;;;;;;;;;;;-1.10;99.90;;;;;;5054818;28;2068;-62
2023/03/01 07:25:11;;;;;;;;;;;-1.10;99.90;;;;;;5049483;28;2380;-63
2023/03/01 07:27:37;;;;;;;;;;;-0.90;99.90;;;;;;5054545;28;2110;-64
2023/03/01 07:30:03;;;;;;;;;;;-0.90;99.90;;;;;;5060283;28;2372;-63
2023/03/01 07:32:29;;;;;;;;;;;-1.20;99.90;;;;;;5054731;28;2074;-63
2023/03/01 07:34:55;;;;;;;;;;;-0.70;99.90;;;;;;5055460;28;2347;-61
2023/03/01 07:37:22;;;;;;;;;;;-0.50;99.90;;;;;;5055250;28;2018;-63
2023/03/01 07:39:48;;;;;;;;;;;-0.40;99.90;;;;;;5055574;28;1633;-63
2023/03/01 07:42:14;;;;;;;;;;;-0.30;99.90;;;;;;5053767;28;2073;-63
2023/03/01 07:44:40;;;;;;;;;;;-0.20;99.90;;;;;;5045913;28;1773;-63
2023/03/01 07:47:06;;;;;;;;;;;0.00;99.90;;;;;;5054731;28;2429;-63
2023/03/01 07:49:32;;;;;;;;;;;0.10;99.90;;;;;;5054883;28;1668;-63
2023/03/01 07:51:59;;;;;;;;;;;0.20;99.90;;;;;;5052274;28;2042;-62
2023/03/01 07:54:26;;;;;;;;;;;0.30;99.90;;;;;;5050001;28;2078;-62
2023/03/01 07:56:52;;;;;;;;;;;0.40;99.90;;;;;;5055310;28;2316;-64
2023/03/01 07:59:18;;;;;;;;;;;0.50;99.90;;;;;;5055002;28;2047;-63
2023/03/01 08:01:44;;;;;;;;;;;0.70;99.90;;;;;;5055305;28;1998;-64
2023/03/01 08:04:10;;;;;;;;;;;0.70;99.90;;;;;;5049945;28;2381;-63
2023/03/01 08:06:37;;;;;;;;;;;0.80;99.90;;;;;;5055370;28;1995;-63
2023/03/01 08:09:03;;;;;;;;;;;0.90;99.90;;;;;;5047513;28;2430;-63
2023/03/01 08:11:29;;;;;;;;;;;1.00;99.90;;;;;;5052161;28;2460;-64
2023/03/01 08:13:56;;;;;;;;;;;1.10;99.90;;;;;;5050783;28;2115;-63
2023/03/01 08:16:22;;;;;;;;;;;1.20;99.90;;;;;;5053791;28;2080;-63
2023/03/01 08:18:48;;;;;;;;;;;1.30;99.90;;;;;;5052587;28;2141;-64
2023/03/01 08:21:15;;;;;;;;;;;1.40;99.90;;;;;;5050815;28;2092;-65
2023/03/01 08:23:42;;;;;;;;;;;1.50;99.90;;;;;;5049998;28;2090;-64
2023/03/01 08:26:10;;;;;;;;;;;1.60;99.90;;;;;;5054323;28;2362;-64
2023/03/01 08:28:36;;;;;;;;;;;1.70;99.90;;;;;;5050231;28;2065;-65
2023/03/01 08:31:03;;;;;;;;;;;1.80;99.90;;;;;;5042032;28;2298;-63
2023/03/01 08:33:29;;;;;;;;;;;1.90;99.90;;;;;;5050962;28;1966;-63
2023/03/01 08:36:02;;;;;;;;;;;1.90;99.90;;;;;;5053563;28;2436;-63
2023/03/01 08:38:28;;;;;;;;;;;2.00;99.90;;;;;;5055156;28;2226;-64
2023/03/01 08:40:54;;;;;;;;;;;2.10;99.90;;;;;;5054266;28;2007;-64
2023/03/01 08:43:20;;;;;;;;;;;2.30;99.90;;;;;;5054542;28;2236;-63
2023/03/01 08:45:48;;;;;;;;;;;2.50;99.90;;;;;;5055148;28;2096;-64
2023/03/01 08:48:14;;;;;;;;;;;2.60;99.90;;;;;;5053425;28;1955;-64
2023/03/01 08:50:41;;;;;;;;;;;2.70;99.90;;;;;;5054287;28;2005;-63
2023/03/01 08:53:07;;;;;;;;;;;2.80;99.90;;;;;;5053755;28;2090;-64
2023/03/01 08:55:33;;;;;;;;;;;2.90;99.90;;;;;;5053683;28;1985;-63
2023/03/01 08:57:59;;;;;;;;;;;2.90;99.90;;;;;;5054015;28;1958;-62
2023/03/01 09:00:25;;;;;;;;;;;3.00;99.90;;;;;;5053161;28;2023;-64
2023/03/01 09:02:51;;;;;;;;;;;3.10;99.90;;;;;;5051870;28;2056;-65
2023/03/01 09:05:18;;;;;;;;;;;3.20;99.90;;;;;;5052638;28;2158;-65
2023/03/01 09:07:44;;;;;;;;;;;3.30;99.90;;;;;;5054251;28;2046;-65
2023/03/01 09:10:10;;;;;;;;;;;3.40;99.90;;;;;;5050960;28;2386;-61
2023/03/01 09:12:37;;;;;;;;;;;3.40;99.90;;;;;;5047578;28;1951;-65
2023/03/01 09:15:03;;;;;;;;;;;3.60;99.90;;;;;;5068175;28;2059;-64
2023/03/01 09:17:29;;;;;;;;;;;3.60;99.90;;;;;;5052969;28;2040;-64
2023/03/01 09:19:55;;;;;;;;;;;3.70;99.90;;;;;;5052797;28;2332;-62
2023/03/01 09:22:21;;;;;;;;;;;3.90;99.90;;;;;;5053375;28;2205;-65
2023/03/01 09:24:48;;;;;;;;;;;3.90;99.90;;;;;;5051210;28;2028;-65
2023/03/01 09:27:14;;;;;;;;;;;4.00;99.90;;;;;;5053030;28;2035;-65
2023/03/01 09:29:40;;;;;;;;;;;4.20;99.90;;;;;;5046409;28;1999;-65
2023/03/01 09:32:08;;;;;;;;;;;4.20;99.90;;;;;;5053477;28;2012;-64
2023/03/01 09:35:00;;;;;;;;;;;4.40;99.90;;;;;;5052116;28;1948;-64
2023/03/01 09:37:20;;;;;;;;;;;4.50;99.90;;;;;;5047592;28;2095;-63
2023/03/01 09:39:46;;;;;;;;;;;4.70;99.90;;;;;;5052811;28;1977;-63
2023/03/01 09:42:13;;;;;;;;;;;4.80;99.90;;;;;;5049477;28;2420;-65
2023/03/01 09:44:51;;;;;;;;;;;5.00;99.90;;;;;;5047847;28;2042;-65
2023/03/01 09:47:18;;;;;;;;;;;5.10;99.90;;;;;;5045552;28;2001;-65
2023/03/01 09:49:48;;;;;;;;;;;5.20;99.90;;;;;;5051968;28;2018;-65
2023/03/01 09:52:25;;;;;;;;;;;5.30;99.90;;;;;;5048714;28;2062;-65
2023/03/01 09:54:53;;;;;;;;;;;5.40;99.90;;;;;;5049757;28;2043;-63
2023/03/01 09:57:20;;;;;;;;;;;5.50;99.90;;;;;;5049209;28;2045;-65
2023/03/01 09:59:46;;;;;;;;;;;5.60;99.90;;;;;;5052498;28;1967;-65
2023/03/01 10:02:24;;;;;;;;;;;5.70;99.90;;;;;;5052827;28;1932;-64
2023/03/01 10:04:53;;;;;;;;;;;5.70;99.90;;;;;;5049532;28;2207;-64
2023/03/01 10:07:38;;;;;;;;;;;5.80;99.90;;;;;;5046228;28;2019;-64
2023/03/01 10:10:07;;;;;;;;;;;5.80;99.90;;;;;;5051446;28;2371;-63
2023/03/01 10:12:36;;;;;;;;;;;5.90;99.90;;;;;;5052698;28;2066;-64
2023/03/01 10:15:02;;;;;;;;;;;5.90;99.90;;;;;;5051629;28;2410;-64
2023/03/01 10:17:41;;;;;;;;;;;6.00;99.90;;;;;;5052888;28;2093;-64
2023/03/01 10:20:17;;;;;;;;;;;6.00;99.90;;;;;;5052332;28;2390;-64
2023/03/01 10:22:48;;;;;;;;;;;6.00;99.90;;;;;;5052858;28;2037;-64
2023/03/01 10:25:15;;;;;;;;;;;6.10;99.90;;;;;;5051299;28;1974;-64
2023/03/01 10:27:54;;;;;;;;;;;6.20;99.90;;;;;;5053179;28;2271;-64
2023/03/01 10:30:36;;;;;;;;;;;6.20;99.90;;;;;;5052633;28;2035;-65
2023/03/01 10:33:03;;;;;;;;;;;6.30;99.90;;;;;;5052552;28;2088;-65
2023/03/01 10:35:35;;;;;;;;;;;6.20;99.90;;;;;;5051906;28;2077;-66
2023/03/01 10:38:03;;;;;;;;;;;6.30;99.90;;;;;;5052483;28;2374;-65
2023/03/01 10:40:29;;;;;;;;;;;6.50;99.90;;;;;;5052961;28;1938;-65
2023/03/01 10:43:00;;;;;;;;;;;6.60;99.90;;;;;;5061085;28;2273;-63
2023/03/01 10:45:29;;;;;;;;;;;6.60;99.90;;;;;;5050441;28;1626;-65
2023/03/01 10:48:03;;;;;;;;;;;6.60;99.90;;;;;;5046553;28;2028;-62
2023/03/01 10:50:30;;;;;;;;;;;6.70;99.90;;;;;;5049645;28;2052;-65
2023/03/01 10:52:59;;;;;;;;;;;6.70;99.90;;;;;;5055790;28;2197;-64
2023/03/01 10:55:34;;;;;;;;;;;6.70;99.90;;;;;;5055964;28;2000;-64
2023/03/01 10:58:08;;;;;;;;;;;6.70;99.90;;;;;;5054274;28;2117;-64
2023/03/01 11:00:45;;;;;;;;;;;6.80;99.90;;;;;;5049488;28;2141;-64
2023/03/01 11:03:13;;;;;;;;;;;6.80;99.90;;;;;;5046174;28;2472;-64
2023/03/01 11:05:50;;;;;;;;;;;6.80;99.90;;;;;;5042081;28;2053;-60
2023/03/01 11:08:28;;;;;;;;;;;6.90;99.90;;;;;;5055913;28;2062;-63
2023/03/01 11:11:03;;;;;;;;;;;6.90;99.90;;;;;;5070860;28;2073;-62
2023/03/01 11:13:30;;;;;;;;;;;6.90;99.90;;;;;;5056164;28;1991;-64
2023/03/01 11:16:01;;;;;;;;;;;7.00;99.90;;;;;;5054141;28;2023;-63
2023/03/01 11:18:28;;;;;;;;;;;7.20;99.90;;;;;;5050454;28;2075;-63
2023/03/01 11:20:55;;;;;;;;;;;7.00;99.90;;;;;;5056014;28;2014;-63
2023/03/01 11:23:22;;;;;;;;;;;6.90;99.90;;;;;;5055912;28;2033;-64
2023/03/01 11:25:54;;;;;;;;;;;7.10;99.90;;;;;;5054799;28;2157;-60
2023/03/01 11:28:21;;;;;;;;;;;7.20;99.90;;;;;;5055467;28;1946;-63
2023/03/01 11:30:47;;;;;;;;;;;7.00;99.90;;;;;;5055466;28;2060;-64
2023/03/01 11:33:19;;;;;;;;;;;7.10;99.90;;;;;;5054554;28;2011;-63
2023/03/01 11:36:06;;;;;;;;;;;7.20;99.90;;;;;;5051450;28;2136;-63
2023/03/01 11:38:35;;;;;;;;;;;7.30;99.90;;;;;;5053467;28;2016;-64
2023/03/01 11:41:05;;;;;;;;;;;7.40;99.90;;;;;;5053794;28;2352;-64
2023/03/01 11:43:35;;;;;;;;;;;7.30;99.90;;;;;;5055729;28;2029;-64
2023/03/01 11:46:01;;;;;;;;;;;7.40;99.90;;;;;;5054519;28;2350;-64
2023/03/01 11:48:34;;;;;;;;;;;7.40;99.90;;;;;;5052364;28;1756;-66
2023/03/01 11:51:04;;;;;;;;;;;7.50;99.90;;;;;;5055385;28;2079;-71
2023/03/01 11:53:45;;;;;;;;;;;7.40;99.90;;;;;;5055695;28;2115;-64
2023/03/01 11:56:17;;;;;;;;;;;7.30;99.90;;;;;;5054148;28;2386;-63
2023/03/01 11:58:58;;;;;;;;;;;7.50;99.90;;;;;;5054982;28;2109;-63
2023/03/01 12:01:36;;;;;;;;;;;7.40;99.90;;;;;;5044019;28;2002;-62
2023/03/01 12:04:02;;;;;;;;;;;7.50;99.90;;;;;;5041150;28;2304;-63
2023/03/01 12:06:47;;;;;;;;;;;7.40;99.90;;;;;;5053943;28;1754;-64
2023/03/01 12:09:19;;;;;;;;;;;7.50;99.90;;;;;;5048556;28;2061;-64
2023/03/01 12:12:06;;;;;;;;;;;7.60;99.90;;;;;;5055329;28;2015;-62
2023/03/01 12:14:51;;;;;;;;;;;7.60;99.90;;;;;;5053434;28;2043;-64
2023/03/01 12:17:23;;;;;;;;;;;7.50;99.90;;;;;;5050759;28;2093;-64
2023/03/01 12:19:50;;;;;;;;;;;7.50;99.90;;;;;;5052015;28;2167;-63
2023/03/01 12:22:30;;;;;;;;;;;7.50;99.90;;;;;;5053166;28;2020;-64
2023/03/01 12:25:15;;;;;;;;;;;7.50;99.90;;;;;;5053280;28;2001;-62
2023/03/01 12:27:41;;;;;;;;;;;7.70;99.90;;;;;;5052598;28;2036;-65
2023/03/01 12:30:27;;;;;;;;;;;7.80;99.90;;;;;;5051160;28;2402;-65
2023/03/01 12:32:59;;;;;;;;;;;7.60;99.90;;;;;;5052451;28;2021;-66
2023/03/01 12:35:35;;;;;;;;;;;7.80;99.90;;;;;;5053730;28;2038;-65
2023/03/01 12:38:22;;;;;;;;;;;7.80;99.90;;;;;;5052665;28;2294;-66
2023/03/01 12:41:06;;;;;;;;;;;7.80;99.50;;;;;;5053518;28;1955;-66
2023/03/01 12:43:44;;;;;;;;;;;7.60;99.90;;;;;;5054877;28;2123;-66
2023/03/01 12:46:15;;;;;;;;;;;7.70;99.60;;;;;;5050185;28;2055;-65
2023/03/01 12:48:44;;;;;;;;;;;7.70;99.90;;;;;;5047918;28;1984;-65
2023/03/01 12:51:13;;;;;;;;;;;7.70;99.90;;;;;;5048256;28;2265;-64
2023/03/01 12:53:41;;;;;;;;;;;7.70;99.90;;;;;;5053525;28;2041;-64
2023/03/01 12:56:12;;;;;;;;;;;7.60;99.80;;;;;;5052858;28;2277;-65
2023/03/01 12:58:46;;;;;;;;;;;7.60;99.30;;;;;;5047298;28;1991;-64
2023/03/01 13:01:19;;;;;;;;;;;7.40;99.00;;;;;;5053279;28;2221;-65
2023/03/01 13:03:56;;;;;;;;;;;7.50;99.90;;;;;;5051783;28;2043;-65
2023/03/01 13:06:45;;;;;;;;;;;7.70;99.90;;;;;;5052126;28;2067;-66
2023/03/01 13:09:30;;;;;;;;;;;7.60;99.90;;;;;;5043389;28;2424;-66
2023/03/01 13:11:57;;;;;;;;;;;7.70;99.90;;;;;;5047995;28;2334;-65
2023/03/01 13:14:23;;;;;;;;;;;7.70;99.90;;;;;;5037971;28;2177;-65
2023/03/01 13:16:50;;;;;;;;;;;7.70;99.90;;;;;;5042153;28;2154;-65
2023/03/01 13:19:23;;;;;;;;;;;7.80;99.90;;;;;;5056229;28;2131;-66
2023/03/01 13:21:53;;;;;;;;;;;7.80;99.90;;;;;;5054089;28;2408;-65
2023/03/01 13:24:38;;;;;;;;;;;7.80;99.90;;;;;;5053422;28;2052;-65
2023/03/01 13:27:07;;;;;;;;;;;7.80;99.90;;;;;;5050837;28;2221;-65
2023/03/01 13:30:03;;;;;;;;;;;7.90;99.90;;;;;;5047761;28;2045;-65
2023/03/01 13:32:33;;;;;;;;;;;7.90;99.90;;;;;;5050551;28;2098;-65
2023/03/01 13:35:20;;;;;;;;;;;7.90;99.90;;;;;;5051117;28;2047;-65
2023/03/01 13:37:46;;;;;;;;;;;7.90;99.90;;;;;;5049404;28;2041;-66
2023/03/01 13:40:18;;;;;;;;;;;7.80;99.90;;;;;;5048605;28;2466;-64
2023/03/01 13:42:46;;;;;;;;;;;7.80;99.90;;;;;;5053215;28;2457;-66
2023/03/01 13:45:24;;;;;;;;;;;7.80;99.90;;;;;;5051452;28;2420;-65
2023/03/01 13:47:53;;;;;;;;;;;7.80;99.90;;;;;;5050898;28;2045;-65
2023/03/01 13:50:22;;;;;;;;;;;7.70;99.90;;;;;;5059161;28;1966;-65
2023/03/01 13:52:58;;;;;;;;;;;7.80;99.90;;;;;;5050166;28;2049;-61
2023/03/01 13:55:27;;;;;;;;;;;7.90;99.90;;;;;;5049138;28;2074;-64
2023/03/01 13:57:55;;;;;;;;;;;7.90;99.90;;;;;;5050492;28;2035;-64
2023/03/01 14:00:26;;;;;;;;;;;7.90;99.90;;;;;;5051799;28;2085;-65
2023/03/01 14:03:02;;;;;;;;;;;7.90;99.90;;;;;;5052482;28;2322;-64
2023/03/01 14:05:28;;;;;;;;;;;7.80;99.90;;;;;;5052495;28;2085;-66
2023/03/01 14:07:54;;;;;;;;;;;7.80;99.90;;;;;;5051498;28;2114;-65
2023/03/01 14:10:21;;;;;;;;;;;7.70;99.90;;;;;;5044858;28;2043;-65
2023/03/01 14:12:50;;;;;;;;;;;7.80;99.90;;;;;;5046195;28;2024;-65
2023/03/01 14:15:22;;;;;;;;;;;7.70;99.90;;;;;;5049561;28;1985;-65
2023/03/01 14:18:07;;;;;;;;;;;7.70;99.90;;;;;;5047060;28;2230;-63
2023/03/01 14:20:38;;;;;;;;;;;7.70;99.90;;;;;;5052627;28;2120;-65
2023/03/01 14:23:10;;;;;;;;;;;7.80;99.90;;;;;;5052091;28;2288;-65
2023/03/01 14:25:38;;;;;;;;;;;7.90;99.90;;;;;;5052079;28;2016;-65
2023/03/01 14:28:24;;;;;;;;;;;7.80;99.90;;;;;;5055753;28;2283;-65
2023/03/01 14:30:51;;;;;;;;;;;7.70;99.90;;;;;;5057938;28;1972;-64
2023/03/01 14:33:20;;;;;;;;;;;7.80;99.90;;;;;;5048370;28;2065;-65
2023/03/01 14:35:52;;;;;;;;;;;7.80;99.90;;;;;;5048574;28;2301;-65
2023/03/01 14:38:22;;;;;;;;;;;7.80;99.90;;;;;;5054426;28;1954;-66
2023/03/01 14:40:51;;;;;;;;;;;7.80;99.90;;;;;;5056724;28;2201;-65
2023/03/01 14:43:22;;;;;;;;;;;7.90;99.90;;;;;;5050231;28;2043;-65
2023/03/01 14:45:49;;;;;;;;;;;7.90;99.90;;;;;;5053491;28;2403;-64
2023/03/01 14:48:16;;;;;;;;;;;7.80;99.90;;;;;;5054907;28;2148;-65
2023/03/01 14:50:44;;;;;;;;;;;7.80;99.90;;;;;;5055494;28;2115;-64